Time;durP1;ratioP1;P1;durP2;ratioP2;P2;SDS_P1;SDS_P2;PMS_P1;PMS_P2;Temp;Humidity;BMP_temperature;BMP_pressure;BME280_temperature;BME280_humidity;BME280_pressure;Samples;Min_cycle;Max_cycle;Signal;HPM_P1;HPM_P2
2022/08/25 00:01:39;;;;;;;6.30;3.90;;;22.10;72.40;;;;;;5049256;28;20432;-72
2022/08/25 00:04:09;;;;;;;5.60;3.80;;;22.00;72.90;;;;;;5038519;28;20433;-71
2022/08/25 00:06:34;;;;;;;6.50;4.30;;;22.00;73.00;;;;;;5044744;28;20434;-71
2022/08/25 00:09:00;;;;;;;5.57;3.80;;;21.90;73.20;;;;;;5044550;28;20434;-70
2022/08/25 00:11:37;;;;;;;5.03;3.90;;;21.90;73.50;;;;;;5047013;28;20251;-71
2022/08/25 00:14:06;;;;;;;7.77;4.27;;;21.80;73.70;;;;;;5045289;28;20661;-70
2022/08/25 00:16:32;;;;;;;9.10;4.50;;;21.70;74.20;;;;;;5040486;28;20423;-71
2022/08/25 00:19:02;;;;;;;7.53;4.53;;;21.80;74.00;;;;;;5050044;28;20462;-71
2022/08/25 00:21:30;;;;;;;4.63;4.10;;;21.80;73.90;;;;;;5049382;28;21315;-70
2022/08/25 00:23:55;;;;;;;5.10;3.53;;;21.80;73.90;;;;;;5046069;28;20418;-71
2022/08/25 00:26:21;;;;;;;6.03;4.20;;;21.80;73.70;;;;;;5042975;28;20433;-70
2022/08/25 00:28:47;;;;;;;7.20;3.87;;;21.80;73.70;;;;;;5040361;28;20198;-70
2022/08/25 00:31:18;;;;;;;6.30;3.97;;;21.70;74.20;;;;;;5037574;28;20220;-71
2022/08/25 00:33:46;;;;;;;6.13;4.20;;;21.50;74.80;;;;;;5044935;28;20195;-71
2022/08/25 00:36:13;;;;;;;4.63;4.10;;;21.30;75.20;;;;;;5040832;28;20429;-71
2022/08/25 00:38:44;;;;;;;4.73;3.70;;;21.30;75.50;;;;;;5042712;28;20466;-70
2022/08/25 00:41:13;;;;;;;4.60;3.50;;;21.20;75.90;;;;;;5043994;28;20843;-70
2022/08/25 00:44:06;;;;;;;6.87;4.10;;;21.20;75.90;;;;;;5045604;28;20433;-73
2022/08/25 00:46:57;;;;;;;5.83;4.37;;;21.20;75.90;;;;;;5043737;28;20430;-71
2022/08/25 00:50:09;;;;;;;5.40;4.07;;;21.20;75.80;;;;;;5044437;28;20535;-71
2022/08/25 00:52:39;;;;;;;6.30;4.33;;;21.20;75.90;;;;;;5043615;28;20433;-71
2022/08/25 00:55:12;;;;;;;7.07;4.10;;;21.20;76.10;;;;;;5037703;28;20410;-71
2022/08/25 00:57:59;;;;;;;5.10;4.00;;;21.30;76.10;;;;;;5044066;28;20468;-69
2022/08/25 01:00:33;;;;;;;8.47;5.00;;;21.20;76.10;;;;;;5038239;28;20475;-70
2022/08/25 01:02:59;;;;;;;5.83;3.97;;;21.10;76.50;;;;;;5044746;28;20422;-70
2022/08/25 01:05:26;;;;;;;6.40;4.43;;;21.00;77.00;;;;;;5033565;28;20430;-71
2022/08/25 01:07:53;;;;;;;5.80;4.30;;;20.90;77.10;;;;;;5044434;28;20511;-72
2022/08/25 01:10:21;;;;;;;9.50;4.50;;;20.80;77.70;;;;;;5035765;28;20478;-70
2022/08/25 01:12:47;;;;;;;11.90;5.30;;;20.80;77.60;;;;;;5044987;28;20424;-71
2022/08/25 01:15:13;;;;;;;5.17;3.93;;;20.80;77.70;;;;;;5038911;28;20424;-71
2022/08/25 01:17:54;;;;;;;4.83;3.90;;;20.90;77.70;;;;;;5039874;28;20927;-71
2022/08/25 01:20:23;;;;;;;5.90;4.30;;;20.90;77.70;;;;;;5041433;28;20467;-71
2022/08/25 01:22:50;;;;;;;10.10;4.07;;;20.90;77.40;;;;;;5038263;28;20508;-71
2022/08/25 01:25:42;;;;;;;6.17;4.00;;;20.90;77.40;;;;;;5043098;28;20760;-70
2022/08/25 01:28:08;;;;;;;5.80;4.00;;;21.00;77.30;;;;;;5036920;28;20429;-72
2022/08/25 01:30:35;;;;;;;5.17;4.20;;;21.00;77.30;;;;;;5041711;28;20495;-71
2022/08/25 01:33:08;;;;;;;7.30;4.13;;;21.00;77.30;;;;;;5049731;28;20202;-71
2022/08/25 01:35:35;;;;;;;5.60;4.00;;;21.00;77.60;;;;;;5045381;28;20467;-71
2022/08/25 01:38:03;;;;;;;6.00;4.37;;;20.90;77.80;;;;;;5043851;28;20890;-71
2022/08/25 01:40:30;;;;;;;5.30;4.10;;;20.80;78.10;;;;;;5038951;28;20475;-71
2022/08/25 01:43:05;;;;;;;6.67;3.80;;;20.80;78.30;;;;;;5041783;28;20429;-70
2022/08/25 01:45:30;;;;;;;6.17;4.40;;;20.70;78.70;;;;;;5046375;28;20423;-70
2022/08/25 01:47:56;;;;;;;5.90;3.53;;;20.60;79.00;;;;;;5037091;28;20946;-71
2022/08/25 01:50:21;;;;;;;6.10;4.20;;;20.60;79.20;;;;;;5038975;28;20280;-71
2022/08/25 01:52:55;;;;;;;8.50;4.33;;;20.60;79.50;;;;;;5044085;28;20209;-72
2022/08/25 01:55:21;;;;;;;8.27;4.60;;;20.60;79.30;;;;;;5050525;28;20192;-70
2022/08/25 01:57:47;;;;;;;6.43;4.17;;;20.60;79.50;;;;;;5050705;28;20425;-70
2022/08/25 02:00:14;;;;;;;7.73;4.63;;;20.60;79.50;;;;;;5041070;28;20639;-71
2022/08/25 02:02:41;;;;;;;6.10;4.73;;;20.50;79.60;;;;;;5037930;28;20425;-71
2022/08/25 02:05:08;;;;;;;7.47;5.00;;;20.50;79.90;;;;;;5040448;28;20438;-70
2022/08/25 02:07:35;;;;;;;6.33;5.23;;;20.40;79.70;;;;;;5041534;28;20451;-71
2022/08/25 02:10:03;;;;;;;6.03;4.40;;;20.40;79.70;;;;;;5037997;28;20464;-70
2022/08/25 02:12:30;;;;;;;6.10;4.40;;;20.30;79.70;;;;;;5039483;28;20433;-71
2022/08/25 02:14:56;;;;;;;5.83;4.43;;;20.30;80.20;;;;;;5039097;28;20439;-71
2022/08/25 02:17:22;;;;;;;5.90;4.60;;;20.30;80.20;;;;;;5040808;28;20432;-71
2022/08/25 02:19:48;;;;;;;6.67;4.40;;;20.30;80.30;;;;;;5045059;28;20845;-71
2022/08/25 02:22:14;;;;;;;6.83;4.77;;;20.30;80.60;;;;;;5044577;28;20228;-71
2022/08/25 02:24:40;;;;;;;6.63;5.07;;;20.30;80.60;;;;;;5034119;28;20448;-71
2022/08/25 02:27:05;;;;;;;7.07;5.17;;;20.30;80.20;;;;;;5044971;28;21207;-71
2022/08/25 02:29:32;;;;;;;8.40;4.53;;;20.20;80.30;;;;;;5034059;28;20210;-71
2022/08/25 02:31:58;;;;;;;6.63;4.57;;;20.20;80.60;;;;;;5042935;28;20192;-70
2022/08/25 02:34:23;;;;;;;7.60;5.10;;;20.20;80.50;;;;;;5043084;28;20424;-70
2022/08/25 02:36:49;;;;;;;7.13;4.30;;;20.20;80.60;;;;;;5043650;28;20194;-70
2022/08/25 02:39:15;;;;;;;13.63;4.97;;;20.10;81.20;;;;;;5033808;28;20597;-72
2022/08/25 02:41:41;;;;;;;9.23;5.37;;;20.10;81.50;;;;;;5043244;28;20283;-71
2022/08/25 02:44:07;;;;;;;8.33;5.20;;;20.20;81.50;;;;;;5043146;28;20185;-72
2022/08/25 02:46:33;;;;;;;7.93;4.70;;;20.10;81.50;;;;;;5038475;28;20423;-70
2022/08/25 02:49:00;;;;;;;8.70;4.90;;;20.10;81.80;;;;;;5045247;28;20449;-71
2022/08/25 02:51:28;;;;;;;7.50;5.30;;;20.00;81.90;;;;;;5038247;28;20553;-71
2022/08/25 02:53:56;;;;;;;8.37;5.27;;;20.00;82.10;;;;;;5040520;28;20464;-71
2022/08/25 02:56:23;;;;;;;8.50;5.50;;;20.00;82.20;;;;;;5037783;28;20421;-71
2022/08/25 02:58:49;;;;;;;9.97;5.30;;;19.90;82.50;;;;;;5036533;28;20438;-72
2022/08/25 03:01:15;;;;;;;10.17;5.20;;;19.90;82.70;;;;;;5035744;28;20464;-71
2022/08/25 03:03:43;;;;;;;14.63;5.53;;;19.80;82.70;;;;;;5041309;28;20192;-70
2022/08/25 03:06:11;;;;;;;7.67;5.47;;;19.80;83.00;;;;;;5037176;28;20503;-70
2022/08/25 03:08:37;;;;;;;7.90;4.40;;;19.70;83.40;;;;;;5041480;28;20462;-70
2022/08/25 03:11:04;;;;;;;6.83;4.20;;;19.70;83.40;;;;;;5044202;28;20471;-73
2022/08/25 03:13:31;;;;;;;8.87;5.50;;;19.70;83.40;;;;;;5046485;28;20422;-70
2022/08/25 03:15:59;;;;;;;7.00;4.97;;;19.60;83.40;;;;;;5035266;28;20423;-70
2022/08/25 03:18:24;;;;;;;10.57;5.33;;;19.60;83.70;;;;;;5039240;28;20443;-72
2022/08/25 03:20:50;;;;;;;8.13;5.43;;;19.50;83.70;;;;;;5033731;28;20476;-71
2022/08/25 03:23:16;;;;;;;6.30;4.90;;;19.60;83.80;;;;;;5043203;28;20566;-71
2022/08/25 03:28:26;;;;;;;7.50;5.10;;;19.50;84.10;;;;;;5039408;28;20419;-71
2022/08/25 03:30:52;;;;;;;7.30;5.00;;;19.40;84.30;;;;;;5035632;28;20483;-70
2022/08/25 03:33:18;;;;;;;10.70;5.20;;;19.40;84.40;;;;;;5039875;28;20189;-70
2022/08/25 03:35:44;;;;;;;7.97;5.20;;;19.50;84.30;;;;;;5037726;28;20494;-71
2022/08/25 03:38:10;;;;;;;7.60;5.20;;;19.40;84.30;;;;;;5040096;28;20419;-70
2022/08/25 03:40:37;;;;;;;8.80;5.20;;;19.50;84.30;;;;;;5036034;28;20833;-70
2022/08/25 03:43:02;;;;;;;7.00;5.70;;;19.50;84.30;;;;;;5038416;28;20412;-70
2022/08/25 03:45:28;;;;;;;7.80;4.90;;;19.40;84.30;;;;;;5037024;28;20459;-70
2022/08/25 03:47:54;;;;;;;7.57;4.80;;;19.40;84.40;;;;;;5035499;28;20212;-70
2022/08/25 03:50:21;;;;;;;8.47;5.60;;;19.40;84.40;;;;;;5036680;28;20478;-71
2022/08/25 03:52:55;;;;;;;7.53;5.10;;;19.40;84.40;;;;;;5035940;28;20428;-70
2022/08/25 03:55:22;;;;;;;8.40;4.83;;;19.40;84.40;;;;;;5037233;28;20508;-69
2022/08/25 03:57:48;;;;;;;10.23;5.63;;;19.40;84.40;;;;;;5035754;28;20424;-70
2022/08/25 04:00:14;;;;;;;7.07;5.40;;;19.40;84.60;;;;;;5035325;28;20469;-70
2022/08/25 04:02:40;;;;;;;7.53;5.03;;;19.40;84.60;;;;;;5040294;28;20193;-70
2022/08/25 04:05:07;;;;;;;7.83;5.40;;;19.30;84.90;;;;;;5046857;28;20189;-71
2022/08/25 04:07:33;;;;;;;10.37;5.90;;;19.30;84.70;;;;;;5043294;28;20424;-70
2022/08/25 04:09:58;;;;;;;7.37;5.20;;;19.30;84.70;;;;;;5048152;28;21072;-70
2022/08/25 04:12:24;;;;;;;7.60;5.07;;;19.40;84.70;;;;;;5038740;28;20181;-71
2022/08/25 04:14:50;;;;;;;7.30;4.93;;;19.30;84.90;;;;;;5041814;28;20224;-71
2022/08/25 04:17:16;;;;;;;8.63;5.50;;;19.40;84.90;;;;;;5038837;28;20189;-70
2022/08/25 04:19:41;;;;;;;9.10;5.80;;;19.40;84.60;;;;;;5045213;28;20221;-71
2022/08/25 04:22:07;;;;;;;7.73;5.27;;;19.50;84.60;;;;;;5069837;28;20469;-69
2022/08/25 04:24:32;;;;;;;8.43;5.30;;;19.40;84.70;;;;;;5056611;28;20190;-69
2022/08/25 04:26:58;;;;;;;8.23;5.93;;;19.40;84.70;;;;;;5040917;28;20275;-70
2022/08/25 04:29:25;;;;;;;9.83;5.60;;;19.50;84.70;;;;;;5035726;28;20224;-70
2022/08/25 04:31:52;;;;;;;9.40;5.90;;;19.50;84.70;;;;;;5040954;28;20193;-70
2022/08/25 04:34:20;;;;;;;7.97;5.43;;;19.40;84.90;;;;;;5043618;28;20573;-69
2022/08/25 04:36:46;;;;;;;10.97;5.57;;;19.40;84.70;;;;;;5046280;28;20433;-70
2022/08/25 04:39:12;;;;;;;11.83;6.37;;;19.40;84.90;;;;;;5041693;28;20788;-70
2022/08/25 04:41:38;;;;;;;8.53;5.17;;;19.40;85.00;;;;;;5038347;28;20226;-70
2022/08/25 04:44:04;;;;;;;9.07;5.60;;;19.30;85.20;;;;;;5041239;28;20955;-72
2022/08/25 04:46:32;;;;;;;9.87;6.50;;;19.30;85.30;;;;;;5039281;28;20426;-71
2022/08/25 04:48:59;;;;;;;10.20;6.13;;;19.30;85.50;;;;;;5043121;28;20223;-71
2022/08/25 04:51:38;;;;;;;8.20;5.67;;;19.20;85.90;;;;;;5046552;28;20986;-69
2022/08/25 04:54:06;;;;;;;9.90;5.80;;;19.30;85.70;;;;;;5043468;28;20458;-70
2022/08/25 04:56:33;;;;;;;12.90;7.43;;;19.40;85.60;;;;;;5041502;28;20469;-71
2022/08/25 04:59:05;;;;;;;8.60;5.70;;;19.40;85.30;;;;;;5043614;28;20424;-69
2022/08/25 05:01:31;;;;;;;9.90;5.93;;;19.50;85.00;;;;;;5039864;28;21028;-70
2022/08/25 05:03:59;;;;;;;7.40;5.10;;;19.50;85.00;;;;;;5041308;28;20437;-71
2022/08/25 05:06:27;;;;;;;9.27;5.97;;;19.40;84.90;;;;;;5047042;28;20192;-71
2022/08/25 05:08:53;;;;;;;11.60;6.50;;;19.40;84.30;;;;;;5038343;28;20431;-70
2022/08/25 05:11:20;;;;;;;10.70;5.80;;;19.40;83.70;;;;;;5045309;28;20836;-70
2022/08/25 05:13:48;;;;;;;13.70;6.13;;;19.20;84.40;;;;;;5039078;28;20459;-72
2022/08/25 05:16:14;;;;;;;10.53;6.10;;;19.10;84.70;;;;;;5046009;28;20480;-70
2022/08/25 05:18:40;;;;;;;9.77;6.03;;;19.10;85.00;;;;;;5051701;28;20448;-70
2022/08/25 05:21:09;;;;;;;12.70;6.70;;;19.00;85.30;;;;;;5054591;28;20356;-72
2022/08/25 05:23:35;;;;;;;10.63;6.33;;;19.00;85.50;;;;;;5056675;28;20421;-70
2022/08/25 05:26:13;;;;;;;10.27;6.17;;;19.00;85.70;;;;;;5053355;28;20849;-70
2022/08/25 05:28:40;;;;;;;8.30;5.77;;;19.10;85.70;;;;;;5047830;28;20562;-69
2022/08/25 05:31:08;;;;;;;12.27;6.83;;;19.10;85.60;;;;;;5037377;28;20477;-72
2022/08/25 05:33:35;;;;;;;8.13;5.67;;;19.20;85.60;;;;;;5048099;28;20430;-71
2022/08/25 05:36:01;;;;;;;12.10;6.60;;;19.20;85.30;;;;;;5055350;28;20423;-71
2022/08/25 05:38:27;;;;;;;11.20;6.47;;;19.20;85.30;;;;;;5047581;28;20437;-70
2022/08/25 05:41:03;;;;;;;13.63;7.33;;;19.20;85.00;;;;;;5053332;28;20224;-71
2022/08/25 05:43:29;;;;;;;12.37;6.60;;;19.20;85.30;;;;;;5052670;28;20438;-73
2022/08/25 05:45:55;;;;;;;13.43;6.80;;;19.20;85.60;;;;;;5046998;28;20420;-70
2022/08/25 05:48:21;;;;;;;12.00;6.87;;;19.30;85.50;;;;;;5048354;28;20526;-71
2022/08/25 05:50:56;;;;;;;10.40;6.47;;;19.40;85.00;;;;;;5046243;28;20529;-71
2022/08/25 05:53:22;;;;;;;14.50;7.10;;;19.50;84.60;;;;;;5056013;28;20674;-69
2022/08/25 05:55:49;;;;;;;15.80;6.80;;;19.60;84.60;;;;;;5041134;28;21092;-70
2022/08/25 05:58:15;;;;;;;13.50;6.80;;;19.60;84.40;;;;;;5052482;28;20426;-70
2022/08/25 06:00:40;;;;;;;14.63;6.37;;;19.70;84.30;;;;;;5044259;28;20496;-70
2022/08/25 06:03:06;;;;;;;10.50;7.63;;;19.80;83.80;;;;;;5056284;28;20189;-71
2022/08/25 06:05:32;;;;;;;10.93;7.10;;;19.90;83.30;;;;;;5047426;28;20190;-70
2022/08/25 06:07:58;;;;;;;10.53;6.07;;;20.00;83.00;;;;;;5057651;28;20216;-71
2022/08/25 06:10:24;;;;;;;18.47;7.43;;;20.10;82.70;;;;;;5049584;28;20482;-73
2022/08/25 06:12:50;;;;;;;10.90;6.83;;;20.20;82.40;;;;;;5056205;28;20249;-71
2022/08/25 06:15:21;;;;;;;14.10;7.00;;;20.20;82.20;;;;;;5046749;28;20453;-70
2022/08/25 06:17:51;;;;;;;15.97;7.50;;;20.20;81.90;;;;;;5046720;28;20186;-71
2022/08/25 06:20:22;;;;;;;10.77;7.73;;;20.30;81.80;;;;;;5038597;28;20511;-71
2022/08/25 06:22:49;;;;;;;15.53;7.60;;;20.30;81.90;;;;;;5041072;28;20484;-71
2022/08/25 06:25:17;;;;;;;10.73;7.53;;;20.30;81.70;;;;;;5043444;28;20478;-72
2022/08/25 06:27:44;;;;;;;16.43;7.50;;;20.30;81.80;;;;;;5041990;28;20535;-71
2022/08/25 06:30:13;;;;;;;14.20;7.50;;;20.40;81.90;;;;;;5048962;28;20565;-70
2022/08/25 06:32:41;;;;;;;12.77;6.87;;;20.50;81.50;;;;;;5046115;28;20426;-71
2022/08/25 06:35:10;;;;;;;11.37;7.90;;;20.60;81.20;;;;;;5040673;28;20429;-70
2022/08/25 06:37:37;;;;;;;14.83;8.90;;;20.60;81.10;;;;;;5033111;28;20482;-71
2022/08/25 06:40:04;;;;;;;11.87;7.20;;;20.60;81.20;;;;;;5043785;28;20826;-71
2022/08/25 06:42:30;;;;;;;13.57;8.20;;;20.80;80.90;;;;;;5038003;28;20429;-71
2022/08/25 06:44:56;;;;;;;16.10;8.60;;;20.90;80.60;;;;;;5044290;28;20477;-71
2022/08/25 06:47:21;;;;;;;15.80;9.60;;;21.00;80.20;;;;;;5032992;28;20187;-70
2022/08/25 06:49:47;;;;;;;14.53;8.33;;;21.00;79.60;;;;;;5041269;28;20297;-71
2022/08/25 06:52:13;;;;;;;14.07;8.23;;;21.00;79.90;;;;;;5041815;28;20182;-70
2022/08/25 06:54:39;;;;;;;14.90;8.50;;;21.00;79.90;;;;;;5041957;28;20196;-73
2022/08/25 06:57:06;;;;;;;14.97;9.10;;;21.10;79.60;;;;;;5041764;28;20424;-71
2022/08/25 06:59:33;;;;;;;18.33;8.67;;;21.10;79.60;;;;;;5043202;28;20552;-71
2022/08/25 07:01:59;;;;;;;17.10;9.10;;;21.20;79.50;;;;;;5039039;28;20435;-72
2022/08/25 07:04:24;;;;;;;15.10;7.30;;;21.20;79.50;;;;;;5040607;28;20850;-71
2022/08/25 07:06:50;;;;;;;16.90;8.70;;;21.30;79.30;;;;;;5043548;28;20517;-70
2022/08/25 07:09:16;;;;;;;14.53;8.50;;;21.30;79.00;;;;;;5060993;28;20177;-73
2022/08/25 07:11:43;;;;;;;13.70;8.20;;;21.30;79.00;;;;;;5037919;28;20207;-74
2022/08/25 07:14:11;;;;;;;14.57;8.40;;;21.30;79.20;;;;;;5048563;28;20829;-72
2022/08/25 07:16:38;;;;;;;12.50;7.63;;;21.40;79.20;;;;;;5039612;28;20759;-71
2022/08/25 07:19:05;;;;;;;15.43;9.47;;;21.50;78.90;;;;;;5042606;28;20434;-73
2022/08/25 07:21:32;;;;;;;13.90;8.10;;;21.60;78.40;;;;;;5042509;28;20934;-72
2022/08/25 07:23:59;;;;;;;16.10;9.43;;;21.70;78.30;;;;;;5042402;28;20437;-72
2022/08/25 07:26:28;;;;;;;16.90;8.50;;;21.70;78.10;;;;;;5046332;28;20433;-71
2022/08/25 07:28:55;;;;;;;15.73;7.97;;;21.80;78.00;;;;;;5041983;28;20530;-73
2022/08/25 07:31:21;;;;;;;12.97;7.83;;;21.90;77.60;;;;;;5040333;28;20478;-72
2022/08/25 07:36:31;;;;;;;13.93;7.43;;;22.20;77.00;;;;;;5044230;28;20411;-72
2022/08/25 07:39:09;;;;;;;12.30;7.23;;;22.30;76.40;;;;;;5039385;28;20426;-73
2022/08/25 07:41:38;;;;;;;16.00;8.80;;;22.40;76.10;;;;;;5048225;28;20196;-73
2022/08/25 07:44:04;;;;;;;10.67;7.17;;;22.40;75.80;;;;;;5048539;28;20428;-71
2022/08/25 07:46:30;;;;;;;11.50;7.73;;;22.60;75.40;;;;;;5045742;28;20425;-71
2022/08/25 07:48:56;;;;;;;12.90;7.60;;;22.60;74.90;;;;;;5041208;28;20922;-71
2022/08/25 07:51:21;;;;;;;14.00;7.80;;;22.80;74.60;;;;;;5044960;28;21035;-72
2022/08/25 07:53:47;;;;;;;15.10;7.93;;;22.90;74.00;;;;;;5042536;28;20191;-72
2022/08/25 07:56:15;;;;;;;13.20;7.83;;;23.00;73.20;;;;;;5044126;28;20258;-72
2022/08/25 07:58:41;;;;;;;12.47;8.53;;;23.00;73.20;;;;;;5039125;28;20191;-74
2022/08/25 08:01:16;;;;;;;15.20;8.73;;;23.10;73.20;;;;;;5039879;28;20461;-73
2022/08/25 08:03:42;;;;;;;13.17;7.90;;;23.20;72.90;;;;;;5038051;28;20954;-73
2022/08/25 08:06:10;;;;;;;13.30;7.90;;;23.20;72.40;;;;;;5042547;28;21007;-75
2022/08/25 08:08:37;;;;;;;13.70;8.10;;;23.30;72.60;;;;;;5039873;28;20427;-72
2022/08/25 08:11:04;;;;;;;10.77;7.50;;;23.40;72.00;;;;;;5034180;28;20811;-71
2022/08/25 08:13:31;;;;;;;15.03;8.37;;;23.50;71.70;;;;;;5040340;28;20483;-73
2022/08/25 08:15:57;;;;;;;15.47;8.50;;;23.70;71.30;;;;;;5041593;28;20416;-72
2022/08/25 08:18:23;;;;;;;11.97;8.10;;;23.70;71.10;;;;;;5044405;28;20596;-72
2022/08/25 08:20:48;;;;;;;11.90;7.20;;;23.70;70.80;;;;;;5038302;28;20278;-72
2022/08/25 08:23:15;;;;;;;10.27;7.17;;;23.70;71.00;;;;;;5047729;28;20430;-71
2022/08/25 08:25:41;;;;;;;10.93;6.37;;;23.90;70.50;;;;;;5036475;28;20195;-72
2022/08/25 08:28:07;;;;;;;9.70;7.53;;;23.90;70.40;;;;;;5044738;28;20425;-72
2022/08/25 08:30:33;;;;;;;11.70;7.07;;;24.00;70.40;;;;;;5036928;28;20475;-72
2022/08/25 08:32:58;;;;;;;10.90;7.63;;;24.00;70.20;;;;;;5043372;28;20438;-73
2022/08/25 08:35:24;;;;;;;16.27;7.30;;;24.10;70.10;;;;;;5047071;28;20655;-72
2022/08/25 08:37:50;;;;;;;11.30;6.93;;;24.20;69.50;;;;;;5048272;28;20197;-71
2022/08/25 08:40:18;;;;;;;17.97;7.60;;;24.20;69.40;;;;;;5038624;28;20468;-72
2022/08/25 08:42:53;;;;;;;11.73;6.83;;;24.30;68.90;;;;;;5042085;28;20186;-73
2022/08/25 08:45:21;;;;;;;11.50;7.33;;;24.30;68.60;;;;;;5038166;28;21066;-73
2022/08/25 08:47:59;;;;;;;12.00;6.83;;;24.40;68.50;;;;;;5047100;28;20863;-72
2022/08/25 08:50:49;;;;;;;10.00;6.80;;;24.50;68.30;;;;;;5039268;28;21006;-72
2022/08/25 08:53:28;;;;;;;11.40;7.93;;;24.50;68.20;;;;;;5039964;28;20423;-72
2022/08/25 08:56:01;;;;;;;11.17;6.90;;;24.60;68.20;;;;;;5044846;28;20434;-72
2022/08/25 08:58:50;;;;;;;10.47;7.00;;;24.60;67.90;;;;;;5038629;28;20429;-71
2022/08/25 09:01:28;;;;;;;11.10;7.70;;;24.70;67.50;;;;;;5041384;28;20552;-73
2022/08/25 09:04:16;;;;;;;9.93;6.60;;;24.90;66.90;;;;;;5036300;28;20812;-76
2022/08/25 09:06:45;;;;;;;10.10;6.50;;;25.00;66.60;;;;;;5041061;28;20482;-72
2022/08/25 09:09:14;;;;;;;11.90;7.33;;;25.00;66.40;;;;;;5044762;28;20714;-73
2022/08/25 09:12:11;;;;;;;9.27;6.60;;;25.10;66.60;;;;;;5040536;28;20520;-72
2022/08/25 09:14:57;;;;;;;10.43;6.40;;;25.20;66.40;;;;;;5041073;28;20470;-72
2022/08/25 09:17:39;;;;;;;8.63;6.87;;;25.30;66.00;;;;;;5040713;28;20444;-71
2022/08/25 09:20:26;;;;;;;12.43;6.83;;;25.30;65.60;;;;;;5043682;28;20472;-71
2022/08/25 09:23:14;;;;;;;11.27;6.73;;;25.40;64.80;;;;;;5046342;28;20417;-72
2022/08/25 09:25:50;;;;;;;15.43;7.07;;;25.40;64.50;;;;;;5041157;28;20422;-72
2022/08/25 09:28:55;;;;;;;11.33;6.90;;;25.30;64.70;;;;;;5042596;28;20421;-71
2022/08/25 09:31:25;;;;;;;8.77;6.57;;;25.30;64.80;;;;;;4996051;28;20848;-72
2022/08/25 09:33:55;;;;;;;8.00;6.37;;;25.50;64.80;;;;;;5001352;28;20466;-72
2022/08/25 09:36:22;;;;;;;10.50;6.13;;;25.60;63.90;;;;;;5002913;28;20431;-72
2022/08/25 09:38:48;;;;;;;11.57;6.93;;;25.80;63.10;;;;;;4984559;28;20435;-71
2022/08/25 09:41:44;;;;;;;9.13;6.47;;;25.80;62.80;;;;;;4986446;28;20467;-72
2022/08/25 09:44:32;;;;;;;8.50;6.43;;;25.80;63.10;;;;;;5004274;28;20531;-70
2022/08/25 09:47:17;;;;;;;13.63;6.47;;;26.00;62.30;;;;;;5006853;28;20447;-71
2022/08/25 09:49:59;;;;;;;9.53;6.13;;;26.00;62.00;;;;;;4999332;28;20462;-71
2022/08/25 09:52:25;;;;;;;9.43;6.23;;;26.10;62.00;;;;;;4990720;28;20435;-71
2022/08/25 09:54:53;;;;;;;10.40;6.63;;;26.30;61.60;;;;;;5003541;28;20424;-71
2022/08/25 09:57:42;;;;;;;10.73;7.07;;;26.30;61.70;;;;;;5007556;28;20437;-71
2022/08/25 10:00:20;;;;;;;11.37;6.83;;;26.40;61.50;;;;;;5002239;28;20519;-73
2022/08/25 10:03:20;;;;;;;10.37;6.90;;;26.30;61.30;;;;;;5007175;28;20966;-70
2022/08/25 10:05:58;;;;;;;10.87;7.27;;;26.40;61.50;;;;;;4995115;28;20617;-72
2022/08/25 10:08:34;;;;;;;9.77;6.50;;;26.50;61.50;;;;;;5030468;28;20429;-73
2022/08/25 10:11:04;;;;;;;14.30;5.97;;;26.40;61.30;;;;;;5042819;28;20477;-72
2022/08/25 10:13:46;;;;;;;8.37;5.90;;;26.50;61.50;;;;;;5049593;28;21155;-72
2022/08/25 10:16:27;;;;;;;11.43;6.40;;;26.70;60.60;;;;;;5040411;28;20413;-72
2022/08/25 10:19:27;;;;;;;8.70;6.03;;;26.80;60.30;;;;;;5034658;28;20437;-72
2022/08/25 10:22:08;;;;;;;11.03;6.60;;;26.70;59.70;;;;;;5037573;28;20580;-71
2022/08/25 10:24:36;;;;;;;9.63;6.20;;;26.70;59.50;;;;;;5044404;28;20427;-71
2022/08/25 10:27:18;;;;;;;9.27;6.40;;;26.80;59.10;;;;;;5040867;28;20429;-70
2022/08/25 10:29:50;;;;;;;8.23;6.03;;;27.00;58.40;;;;;;5040914;28;20815;-72
2022/08/25 10:32:50;;;;;;;9.23;5.87;;;27.00;58.10;;;;;;5040954;28;20963;-72
2022/08/25 10:35:19;;;;;;;9.80;6.07;;;27.00;58.70;;;;;;5033262;28;20433;-71
2022/08/25 10:38:19;;;;;;;10.20;6.37;;;27.30;57.40;;;;;;5041456;28;20422;-73
2022/08/25 10:41:24;;;;;;;11.73;6.87;;;27.40;56.80;;;;;;5033334;28;20462;-71
2022/08/25 10:44:01;;;;;;;11.70;6.70;;;27.40;56.90;;;;;;5044169;28;20434;-72
2022/08/25 10:46:42;;;;;;;8.57;6.03;;;27.30;56.80;;;;;;5042350;28;20426;-71
2022/08/25 10:49:25;;;;;;;9.90;6.73;;;27.20;57.30;;;;;;5043612;28;20423;-72
2022/08/25 10:52:02;;;;;;;7.20;5.30;;;27.60;57.00;;;;;;5042670;28;20567;-72
2022/08/25 10:54:41;;;;;;;8.43;5.80;;;28.30;54.90;;;;;;5039462;28;20514;-72
2022/08/25 10:57:20;;;;;;;10.10;6.40;;;28.80;53.40;;;;;;5041617;28;20443;-73
2022/08/25 10:59:59;;;;;;;8.63;5.30;;;29.20;52.40;;;;;;5038957;28;20454;-71
2022/08/25 11:02:37;;;;;;;11.33;6.20;;;29.70;51.40;;;;;;5045281;28;20518;-72
2022/08/25 11:05:15;;;;;;;8.30;5.80;;;29.80;49.90;;;;;;5034424;28;20412;-72
2022/08/25 11:07:53;;;;;;;7.53;5.57;;;29.30;51.00;;;;;;5038088;28;20424;-73
2022/08/25 11:10:30;;;;;;;6.30;4.83;;;29.30;51.80;;;;;;5040915;28;20478;-72
2022/08/25 11:12:59;;;;;;;7.20;5.60;;;30.00;50.10;;;;;;5046272;28;20419;-72
2022/08/25 11:15:36;;;;;;;9.90;6.47;;;29.70;49.30;;;;;;5042533;28;20419;-72
2022/08/25 11:18:10;;;;;;;12.27;8.17;;;29.40;50.20;;;;;;5041902;28;20431;-71
2022/08/25 11:20:48;;;;;;;7.30;5.37;;;29.40;50.70;;;;;;5041926;28;20466;-71
2022/08/25 11:23:22;;;;;;;6.43;4.80;;;30.10;48.90;;;;;;5036411;28;20525;-71
2022/08/25 11:25:59;;;;;;;7.10;5.07;;;30.50;46.60;;;;;;5040904;28;20438;-72
2022/08/25 11:29:00;;;;;;;7.40;5.37;;;30.50;46.60;;;;;;5042886;28;20744;-74
2022/08/25 11:31:27;;;;;;;10.07;6.00;;;30.50;46.60;;;;;;5033364;28;20479;-73
2022/08/25 11:33:55;;;;;;;7.23;5.00;;;30.00;47.70;;;;;;5043903;28;20423;-71
2022/08/25 11:36:32;;;;;;;8.10;5.60;;;30.50;47.40;;;;;;5041801;28;20434;-71
2022/08/25 11:39:12;;;;;;;9.47;5.40;;;31.00;45.80;;;;;;5044565;28;20422;-72
2022/08/25 11:41:57;;;;;;;7.37;4.50;;;30.70;46.60;;;;;;5038355;28;20470;-72
2022/08/25 11:45:03;;;;;;;6.43;4.40;;;31.00;45.10;;;;;;5045721;28;20427;-72
2022/08/25 11:47:45;;;;;;;7.30;4.53;;;31.20;44.20;;;;;;5032875;28;20446;-71
2022/08/25 11:50:31;;;;;;;6.70;4.53;;;31.30;44.20;;;;;;5036710;28;20493;-71
2022/08/25 11:53:15;;;;;;;7.20;4.60;;;31.30;43.90;;;;;;5045805;28;20411;-72
2022/08/25 11:56:06;;;;;;;6.80;4.67;;;31.70;42.30;;;;;;5042895;28;20424;-71
2022/08/25 11:58:41;;;;;;;5.97;4.10;;;32.00;41.00;;;;;;5029466;28;20420;-71
2022/08/25 12:01:37;;;;;;;8.73;5.20;;;31.90;41.20;;;;;;5038563;28;20462;-71
2022/08/25 12:04:32;;;;;;;6.63;4.77;;;31.90;41.90;;;;;;5049167;28;20419;-71
2022/08/25 12:07:09;;;;;;;5.23;4.60;;;32.10;41.40;;;;;;5041726;28;20431;-73
2022/08/25 12:10:09;;;;;;;5.73;4.93;;;32.20;41.50;;;;;;5041857;28;20443;-71
2022/08/25 12:12:42;;;;;;;6.10;5.00;;;32.20;41.10;;;;;;5044518;28;20853;-71
2022/08/25 12:15:41;;;;;;;6.50;5.00;;;32.10;41.20;;;;;;5039274;28;20455;-72
2022/08/25 12:18:15;;;;;;;16.93;5.07;;;31.60;42.70;;;;;;5043267;28;20433;-71
2022/08/25 12:20:52;;;;;;;8.90;4.70;;;31.50;42.60;;;;;;5040367;28;20998;-72
2022/08/25 12:23:38;;;;;;;7.20;5.07;;;31.30;43.70;;;;;;5050084;28;20422;-71
2022/08/25 12:26:32;;;;;;;6.00;5.07;;;31.20;44.20;;;;;;5050138;28;20426;-71
2022/08/25 12:29:13;;;;;;;7.10;4.93;;;31.30;43.80;;;;;;5047007;28;20483;-73
2022/08/25 12:31:48;;;;;;;6.00;5.20;;;31.50;43.40;;;;;;5041267;28;20559;-73
2022/08/25 12:34:26;;;;;;;6.70;5.43;;;31.50;42.60;;;;;;5039957;28;20422;-73
2022/08/25 12:37:04;;;;;;;7.37;5.27;;;31.40;43.40;;;;;;5046904;28;20416;-73
2022/08/25 12:39:49;;;;;;;6.03;5.00;;;31.90;42.20;;;;;;5038875;28;20507;-71
2022/08/25 12:42:42;;;;;;;8.50;5.17;;;32.30;41.50;;;;;;5037106;28;20471;-72
2022/08/25 12:45:23;;;;;;;6.17;4.93;;;32.40;42.70;;;;;;5046055;28;20508;-72
2022/08/25 12:47:51;;;;;;;6.50;5.50;;;32.60;43.10;;;;;;5052657;28;20427;-72
2022/08/25 12:50:42;;;;;;;6.77;4.77;;;32.60;41.60;;;;;;5049166;28;20513;-71
2022/08/25 12:53:14;;;;;;;5.43;4.23;;;32.70;41.10;;;;;;5050539;28;20492;-74
2022/08/25 12:55:48;;;;;;;7.53;4.67;;;32.20;42.20;;;;;;5041367;28;20446;-73
2022/08/25 12:58:13;;;;;;;9.60;4.67;;;32.40;40.20;;;;;;5049838;28;20454;-71
2022/08/25 13:01:14;;;;;;;6.13;4.53;;;32.40;40.40;;;;;;5039408;28;20499;-71
2022/08/25 13:04:04;;;;;;;6.10;4.80;;;32.30;41.10;;;;;;5045214;28;20184;-72
2022/08/25 13:06:54;;;;;;;6.20;4.60;;;32.20;41.20;;;;;;5044231;28;20420;-71
2022/08/25 13:09:41;;;;;;;4.83;4.57;;;32.10;41.10;;;;;;5042036;28;20423;-71
2022/08/25 13:12:06;;;;;;;6.50;4.57;;;31.70;41.60;;;;;;5039105;28;20462;-71
2022/08/25 13:14:40;;;;;;;6.00;4.77;;;31.90;41.50;;;;;;5050774;28;20786;-72